sensor_id;sensor_type;location;lat;lon;timestamp;pressure;altitude;pressure_sealevel;temperature
77599;BMP280;66758;52.078;5.070;2023-09-07T00:00:58;98192.97;;;23.10
77599;BMP280;66758;52.078;5.070;2023-09-07T00:03:26;98159.97;;;22.81
77599;BMP280;66758;52.078;5.070;2023-09-07T00:05:51;97960.00;;;22.89
77599;BMP280;66758;52.078;5.070;2023-09-07T00:08:17;97637.09;;;22.73
77599;BMP280;66758;52.078;5.070;2023-09-07T00:10:42;97535.34;;;22.80
77599;BMP280;66758;52.078;5.070;2023-09-07T00:13:07;97509.00;;;22.75
77599;BMP280;66758;52.078;5.070;2023-09-07T00:15:37;97476.75;;;22.50
77599;BMP280;66758;52.078;5.070;2023-09-07T00:18:03;97311.41;;;22.55
77599;BMP280;66758;52.078;5.070;2023-09-07T00:20:29;97247.94;;;22.61
77599;BMP280;66758;52.078;5.070;2023-09-07T00:22:54;97361.22;;;22.45
77599;BMP280;66758;52.078;5.070;2023-09-07T00:25:20;97315.88;;;22.63
77599;BMP280;66758;52.078;5.070;2023-09-07T00:27:46;97422.59;;;22.88
77599;BMP280;66758;52.078;5.070;2023-09-07T00:30:11;97417.97;;;22.48
77599;BMP280;66758;52.078;5.070;2023-09-07T00:32:38;97204.28;;;22.45
77599;BMP280;66758;52.078;5.070;2023-09-07T00:35:04;97237.91;;;22.52
77599;BMP280;66758;52.078;5.070;2023-09-07T00:37:31;97217.03;;;22.59
77599;BMP280;66758;52.078;5.070;2023-09-07T00:39:56;97259.84;;;22.61
77599;BMP280;66758;52.078;5.070;2023-09-07T00:42:21;97334.88;;;22.65
77599;BMP280;66758;52.078;5.070;2023-09-07T00:44:47;97280.03;;;22.49
77599;BMP280;66758;52.078;5.070;2023-09-07T00:47:14;97310.31;;;22.82
77599;BMP280;66758;52.078;5.070;2023-09-07T00:49:40;97454.53;;;22.93
77599;BMP280;66758;52.078;5.070;2023-09-07T00:52:08;97435.69;;;22.75
77599;BMP280;66758;52.078;5.070;2023-09-07T00:54:34;97483.91;;;22.75
77599;BMP280;66758;52.078;5.070;2023-09-07T00:57:00;97441.88;;;22.68
77599;BMP280;66758;52.078;5.070;2023-09-07T00:59:25;97421.91;;;22.58
77599;BMP280;66758;52.078;5.070;2023-09-07T01:01:51;97354.84;;;22.69
77599;BMP280;66758;52.078;5.070;2023-09-07T01:04:16;97388.09;;;22.43
77599;BMP280;66758;52.078;5.070;2023-09-07T01:06:47;97347.31;;;22.64
77599;BMP280;66758;52.078;5.070;2023-09-07T01:09:19;97384.72;;;22.74
77599;BMP280;66758;52.078;5.070;2023-09-07T01:11:47;97464.53;;;22.83
77599;BMP280;66758;52.078;5.070;2023-09-07T01:14:12;97471.56;;;22.65
77599;BMP280;66758;52.078;5.070;2023-09-07T01:16:38;97430.25;;;22.63
77599;BMP280;66758;52.078;5.070;2023-09-07T01:19:06;97379.06;;;22.61
77599;BMP280;66758;52.078;5.070;2023-09-07T01:21:35;97329.53;;;22.43
77599;BMP280;66758;52.078;5.070;2023-09-07T01:24:03;97252.34;;;22.32
77599;BMP280;66758;52.078;5.070;2023-09-07T01:26:29;97205.25;;;22.29
77599;BMP280;66758;52.078;5.070;2023-09-07T01:28:55;97099.63;;;22.06
77599;BMP280;66758;52.078;5.070;2023-09-07T01:31:21;97280.13;;;21.95
77599;BMP280;66758;52.078;5.070;2023-09-07T01:33:46;97385.00;;;21.92
77599;BMP280;66758;52.078;5.070;2023-09-07T01:36:12;97414.94;;;21.86
77599;BMP280;66758;52.078;5.070;2023-09-07T01:38:37;97420.59;;;22.10
77599;BMP280;66758;52.078;5.070;2023-09-07T01:41:03;97410.06;;;21.98
77599;BMP280;66758;52.078;5.070;2023-09-07T01:43:28;97377.25;;;22.09
77599;BMP280;66758;52.078;5.070;2023-09-07T01:45:53;97351.56;;;22.22
77599;BMP280;66758;52.078;5.070;2023-09-07T01:48:19;97353.09;;;21.93
77599;BMP280;66758;52.078;5.070;2023-09-07T01:50:44;97392.94;;;21.83
77599;BMP280;66758;52.078;5.070;2023-09-07T01:53:09;97700.97;;;21.78
77599;BMP280;66758;52.078;5.070;2023-09-07T01:55:35;97871.66;;;21.73
77599;BMP280;66758;52.078;5.070;2023-09-07T01:58:00;97858.25;;;21.99
77599;BMP280;66758;52.078;5.070;2023-09-07T02:00:26;98101.03;;;21.48
77599;BMP280;66758;52.078;5.070;2023-09-07T02:02:51;98950.84;;;21.59
77599;BMP280;66758;52.078;5.070;2023-09-07T02:05:16;99249.84;;;21.50
77599;BMP280;66758;52.078;5.070;2023-09-07T02:07:42;99750.66;;;21.50
77599;BMP280;66758;52.078;5.070;2023-09-07T02:10:08;100378.44;;;21.54
77599;BMP280;66758;52.078;5.070;2023-09-07T02:12:34;100482.44;;;21.92
77599;BMP280;66758;52.078;5.070;2023-09-07T02:15:01;100321.44;;;22.05
77599;BMP280;66758;52.078;5.070;2023-09-07T02:17:28;100088.50;;;21.88
77599;BMP280;66758;52.078;5.070;2023-09-07T02:19:54;99993.53;;;21.83
77599;BMP280;66758;52.078;5.070;2023-09-07T02:22:19;99868.84;;;21.92
77599;BMP280;66758;52.078;5.070;2023-09-07T02:24:45;99787.31;;;21.88
77599;BMP280;66758;52.078;5.070;2023-09-07T02:27:10;99702.41;;;21.80
77599;BMP280;66758;52.078;5.070;2023-09-07T02:29:36;99545.66;;;21.85
77599;BMP280;66758;52.078;5.070;2023-09-07T02:32:02;99399.59;;;21.92
77599;BMP280;66758;52.078;5.070;2023-09-07T02:34:27;99253.72;;;21.77
77599;BMP280;66758;52.078;5.070;2023-09-07T02:36:53;99210.13;;;21.64
77599;BMP280;66758;52.078;5.070;2023-09-07T02:39:18;99197.75;;;21.65
77599;BMP280;66758;52.078;5.070;2023-09-07T02:41:43;99185.56;;;21.54
77599;BMP280;66758;52.078;5.070;2023-09-07T02:44:10;99275.88;;;21.38
77599;BMP280;66758;52.078;5.070;2023-09-07T02:46:36;99384.72;;;21.35
77599;BMP280;66758;52.078;5.070;2023-09-07T02:49:02;99606.03;;;21.34
77599;BMP280;66758;52.078;5.070;2023-09-07T02:51:28;99666.91;;;21.53
77599;BMP280;66758;52.078;5.070;2023-09-07T02:53:53;99452.47;;;21.68
77599;BMP280;66758;52.078;5.070;2023-09-07T02:56:19;99261.97;;;21.71
77599;BMP280;66758;52.078;5.070;2023-09-07T02:58:44;98939.41;;;22.01
77599;BMP280;66758;52.078;5.070;2023-09-07T03:01:10;98532.78;;;21.94
77599;BMP280;66758;52.078;5.070;2023-09-07T03:03:37;98088.03;;;21.82
77599;BMP280;66758;52.078;5.070;2023-09-07T03:06:10;97600.59;;;21.89
77599;BMP280;66758;52.078;5.070;2023-09-07T03:08:35;97308.44;;;21.69
77599;BMP280;66758;52.078;5.070;2023-09-07T03:11:08;97168.31;;;21.55
77599;BMP280;66758;52.078;5.070;2023-09-07T03:13:33;97104.09;;;21.24
77599;BMP280;66758;52.078;5.070;2023-09-07T03:16:02;97192.91;;;21.22
77599;BMP280;66758;52.078;5.070;2023-09-07T03:18:27;97316.97;;;21.11
77599;BMP280;66758;52.078;5.070;2023-09-07T03:20:54;97564.13;;;20.96
77599;BMP280;66758;52.078;5.070;2023-09-07T03:23:21;97627.13;;;20.94
77599;BMP280;66758;52.078;5.070;2023-09-07T03:25:46;97806.00;;;21.05
77599;BMP280;66758;52.078;5.070;2023-09-07T03:28:12;97906.44;;;21.02
77599;BMP280;66758;52.078;5.070;2023-09-07T03:30:38;98051.63;;;20.95
77599;BMP280;66758;52.078;5.070;2023-09-07T03:33:04;98267.06;;;20.88
77599;BMP280;66758;52.078;5.070;2023-09-07T03:35:29;98594.13;;;20.84
77599;BMP280;66758;52.078;5.070;2023-09-07T03:37:55;98881.91;;;20.77
77599;BMP280;66758;52.078;5.070;2023-09-07T03:40:20;99360.00;;;20.73
77599;BMP280;66758;52.078;5.070;2023-09-07T03:42:45;99705.00;;;20.86
77599;BMP280;66758;52.078;5.070;2023-09-07T03:45:11;99984.53;;;20.88
77599;BMP280;66758;52.078;5.070;2023-09-07T03:47:37;100170.19;;;20.79
77599;BMP280;66758;52.078;5.070;2023-09-07T03:50:03;100374.09;;;20.70
77599;BMP280;66758;52.078;5.070;2023-09-07T03:52:28;100589.84;;;20.78
77599;BMP280;66758;52.078;5.070;2023-09-07T03:54:54;100860.59;;;20.66
77599;BMP280;66758;52.078;5.070;2023-09-07T03:57:21;101133.78;;;20.71
77599;BMP280;66758;52.078;5.070;2023-09-07T03:59:47;101159.56;;;21.02
77599;BMP280;66758;52.078;5.070;2023-09-07T04:02:13;101139.91;;;20.86
77599;BMP280;66758;52.078;5.070;2023-09-07T04:04:38;101134.63;;;20.92
77599;BMP280;66758;52.078;5.070;2023-09-07T04:07:04;101151.97;;;20.76
77599;BMP280;66758;52.078;5.070;2023-09-07T04:09:29;101174.34;;;20.99
77599;BMP280;66758;52.078;5.070;2023-09-07T04:11:55;101179.81;;;20.76
77599;BMP280;66758;52.078;5.070;2023-09-07T04:14:20;101195.97;;;20.88
77599;BMP280;66758;52.078;5.070;2023-09-07T04:16:46;101177.25;;;20.89
77599;BMP280;66758;52.078;5.070;2023-09-07T04:19:12;101161.06;;;20.80
77599;BMP280;66758;52.078;5.070;2023-09-07T04:21:38;101187.97;;;20.63
77599;BMP280;66758;52.078;5.070;2023-09-07T04:24:04;101192.97;;;20.76
77599;BMP280;66758;52.078;5.070;2023-09-07T04:26:29;101194.50;;;20.80
77599;BMP280;66758;52.078;5.070;2023-09-07T04:28:55;101188.91;;;20.80
77599;BMP280;66758;52.078;5.070;2023-09-07T04:31:20;101116.31;;;20.94
77599;BMP280;66758;52.078;5.070;2023-09-07T04:33:46;101091.34;;;20.87
77599;BMP280;66758;52.078;5.070;2023-09-07T04:36:13;101048.66;;;20.94
77599;BMP280;66758;52.078;5.070;2023-09-07T04:38:39;101022.06;;;20.89
77599;BMP280;66758;52.078;5.070;2023-09-07T04:41:07;100945.19;;;20.95
77599;BMP280;66758;52.078;5.070;2023-09-07T04:43:33;100926.50;;;20.92
77599;BMP280;66758;52.078;5.070;2023-09-07T04:45:58;100842.50;;;21.13
77599;BMP280;66758;52.078;5.070;2023-09-07T04:48:23;100803.88;;;20.96
77599;BMP280;66758;52.078;5.070;2023-09-07T04:51:00;100672.56;;;21.13
77599;BMP280;66758;52.078;5.070;2023-09-07T04:53:28;100598.13;;;20.98
77599;BMP280;66758;52.078;5.070;2023-09-07T04:55:53;100531.28;;;20.98
77599;BMP280;66758;52.078;5.070;2023-09-07T04:58:20;100505.16;;;20.92
77599;BMP280;66758;52.078;5.070;2023-09-07T05:00:45;100495.41;;;20.84
77599;BMP280;66758;52.078;5.070;2023-09-07T05:03:11;100496.81;;;20.76
77599;BMP280;66758;52.078;5.070;2023-09-07T05:05:38;100481.94;;;20.82
77599;BMP280;66758;52.078;5.070;2023-09-07T05:08:03;100457.41;;;20.77
77599;BMP280;66758;52.078;5.070;2023-09-07T05:10:33;100442.38;;;20.75
77599;BMP280;66758;52.078;5.070;2023-09-07T05:12:58;100448.75;;;20.75
77599;BMP280;66758;52.078;5.070;2023-09-07T05:15:24;100413.44;;;20.85
77599;BMP280;66758;52.078;5.070;2023-09-07T05:17:49;100397.91;;;20.71
77599;BMP280;66758;52.078;5.070;2023-09-07T05:20:15;100377.88;;;20.76
77599;BMP280;66758;52.078;5.070;2023-09-07T05:22:40;100359.94;;;20.77
77599;BMP280;66758;52.078;5.070;2023-09-07T05:25:06;100349.59;;;20.78
77599;BMP280;66758;52.078;5.070;2023-09-07T05:27:34;100343.25;;;20.77
77599;BMP280;66758;52.078;5.070;2023-09-07T05:30:00;100331.56;;;20.82
77599;BMP280;66758;52.078;5.070;2023-09-07T05:32:25;100304.94;;;20.81
77599;BMP280;66758;52.078;5.070;2023-09-07T05:34:51;100291.25;;;20.74
77599;BMP280;66758;52.078;5.070;2023-09-07T05:37:16;100264.75;;;20.82
77599;BMP280;66758;52.078;5.070;2023-09-07T05:39:42;100217.63;;;20.88
77599;BMP280;66758;52.078;5.070;2023-09-07T05:42:07;100197.38;;;20.87
77599;BMP280;66758;52.078;5.070;2023-09-07T05:44:32;100130.63;;;20.84
77599;BMP280;66758;52.078;5.070;2023-09-07T05:46:58;100107.25;;;20.81
77599;BMP280;66758;52.078;5.070;2023-09-07T05:49:24;100024.81;;;20.96
77599;BMP280;66758;52.078;5.070;2023-09-07T05:51:49;99977.72;;;20.89
77599;BMP280;66758;52.078;5.070;2023-09-07T05:54:15;99924.03;;;20.89
77599;BMP280;66758;52.078;5.070;2023-09-07T05:56:40;99891.19;;;20.84
77599;BMP280;66758;52.078;5.070;2023-09-07T05:59:05;99793.59;;;21.00
77599;BMP280;66758;52.078;5.070;2023-09-07T06:01:31;99729.34;;;20.94
77599;BMP280;66758;52.078;5.070;2023-09-07T06:03:58;99553.84;;;21.16
77599;BMP280;66758;52.078;5.070;2023-09-07T06:06:23;99379.28;;;21.13
77599;BMP280;66758;52.078;5.070;2023-09-07T06:08:49;99138.72;;;21.19
77599;BMP280;66758;52.078;5.070;2023-09-07T06:11:14;98962.09;;;21.11
77599;BMP280;66758;52.078;5.070;2023-09-07T06:13:40;98737.41;;;21.17
77599;BMP280;66758;52.078;5.070;2023-09-07T06:16:06;98504.97;;;21.13
77599;BMP280;66758;52.078;5.070;2023-09-07T06:18:32;98300.97;;;21.12
77599;BMP280;66758;52.078;5.070;2023-09-07T06:20:57;98109.25;;;21.26
77599;BMP280;66758;52.078;5.070;2023-09-07T06:23:22;97902.97;;;21.24
77599;BMP280;66758;52.078;5.070;2023-09-07T06:25:48;97742.78;;;21.11
77599;BMP280;66758;52.078;5.070;2023-09-07T06:28:14;97514.47;;;21.34
77599;BMP280;66758;52.078;5.070;2023-09-07T06:30:40;97359.34;;;21.34
77599;BMP280;66758;52.078;5.070;2023-09-07T06:33:05;97177.06;;;21.41
77599;BMP280;66758;52.078;5.070;2023-09-07T06:35:31;97085.59;;;21.50
77599;BMP280;66758;52.078;5.070;2023-09-07T06:37:56;96997.47;;;21.53
77599;BMP280;66758;52.078;5.070;2023-09-07T06:40:22;96905.81;;;21.55
77599;BMP280;66758;52.078;5.070;2023-09-07T06:42:47;96811.69;;;21.53
77599;BMP280;66758;52.078;5.070;2023-09-07T06:45:13;96811.69;;;21.53
77599;BMP280;66758;52.078;5.070;2023-09-07T06:47:38;96732.81;;;21.64
77599;BMP280;66758;52.078;5.070;2023-09-07T06:50:05;96689.09;;;21.59
77599;BMP280;66758;52.078;5.070;2023-09-07T06:52:31;96638.53;;;21.55
77599;BMP280;66758;52.078;5.070;2023-09-07T06:54:56;96664.91;;;21.67
77599;BMP280;66758;52.078;5.070;2023-09-07T06:57:21;96666.41;;;21.81
77599;BMP280;66758;52.078;5.070;2023-09-07T06:59:47;96646.91;;;21.81
77599;BMP280;66758;52.078;5.070;2023-09-07T07:02:13;96772.16;;;22.00
77599;BMP280;66758;52.078;5.070;2023-09-07T07:04:39;96893.16;;;22.04
77599;BMP280;66758;52.078;5.070;2023-09-07T07:07:04;97101.28;;;22.15
77599;BMP280;66758;52.078;5.070;2023-09-07T07:09:31;97270.66;;;22.28
77599;BMP280;66758;52.078;5.070;2023-09-07T07:11:59;97494.31;;;22.45
77599;BMP280;66758;52.078;5.070;2023-09-07T07:14:27;97671.06;;;22.42
77599;BMP280;66758;52.078;5.070;2023-09-07T07:16:53;97893.13;;;22.56
77599;BMP280;66758;52.078;5.070;2023-09-07T07:19:18;98208.41;;;22.61
77599;BMP280;66758;52.078;5.070;2023-09-07T07:21:44;98254.13;;;22.81
77599;BMP280;66758;52.078;5.070;2023-09-07T07:24:10;98332.31;;;22.92
77599;BMP280;66758;52.078;5.070;2023-09-07T07:26:35;98516.38;;;23.01
77599;BMP280;66758;52.078;5.070;2023-09-07T07:29:01;98627.34;;;23.06
77599;BMP280;66758;52.078;5.070;2023-09-07T07:31:28;98707.38;;;23.15
77599;BMP280;66758;52.078;5.070;2023-09-07T07:33:54;98745.13;;;23.04
77599;BMP280;66758;52.078;5.070;2023-09-07T07:36:20;98813.47;;;23.35
77599;BMP280;66758;52.078;5.070;2023-09-07T07:38:46;98883.88;;;23.39
77599;BMP280;66758;52.078;5.070;2023-09-07T07:41:11;98974.16;;;23.25
77599;BMP280;66758;52.078;5.070;2023-09-07T07:43:37;98968.28;;;23.43
77599;BMP280;66758;52.078;5.070;2023-09-07T07:46:02;99124.22;;;23.79
77599;BMP280;66758;52.078;5.070;2023-09-07T07:48:27;99287.94;;;23.80
77599;BMP280;66758;52.078;5.070;2023-09-07T07:50:54;99075.50;;;23.91
77599;BMP280;66758;52.078;5.070;2023-09-07T07:53:20;99271.75;;;24.04
77599;BMP280;66758;52.078;5.070;2023-09-07T07:55:45;99349.31;;;24.24
77599;BMP280;66758;52.078;5.070;2023-09-07T07:58:11;99522.06;;;24.24
77599;BMP280;66758;52.078;5.070;2023-09-07T08:00:37;99677.66;;;24.45
77599;BMP280;66758;52.078;5.070;2023-09-07T08:03:04;100036.94;;;24.60
77599;BMP280;66758;52.078;5.070;2023-09-07T08:05:34;100216.22;;;24.60
77599;BMP280;66758;52.078;5.070;2023-09-07T08:08:00;100334.97;;;24.72
77599;BMP280;66758;52.078;5.070;2023-09-07T08:10:26;100388.66;;;24.70
77599;BMP280;66758;52.078;5.070;2023-09-07T08:12:55;100434.72;;;24.78
77599;BMP280;66758;52.078;5.070;2023-09-07T08:15:21;100469.59;;;25.04
77599;BMP280;66758;52.078;5.070;2023-09-07T08:17:48;100375.31;;;25.25
77599;BMP280;66758;52.078;5.070;2023-09-07T08:20:14;100498.81;;;25.49
77599;BMP280;66758;52.078;5.070;2023-09-07T08:22:40;100695.22;;;25.49
77599;BMP280;66758;52.078;5.070;2023-09-07T08:25:08;100766.94;;;25.68
77599;BMP280;66758;52.078;5.070;2023-09-07T08:27:34;100709.25;;;25.76
77599;BMP280;66758;52.078;5.070;2023-09-07T08:29:59;100819.47;;;26.04
77599;BMP280;66758;52.078;5.070;2023-09-07T08:32:24;101178.56;;;26.14
77599;BMP280;66758;52.078;5.070;2023-09-07T08:34:50;101099.72;;;26.49
77599;BMP280;66758;52.078;5.070;2023-09-07T08:37:15;101433.38;;;26.92
77599;BMP280;66758;52.078;5.070;2023-09-07T08:39:41;101732.44;;;27.01
77599;BMP280;66758;52.078;5.070;2023-09-07T08:42:07;101842.94;;;27.14
77599;BMP280;66758;52.078;5.070;2023-09-07T08:44:33;101863.19;;;27.47
77599;BMP280;66758;52.078;5.070;2023-09-07T08:46:59;101890.84;;;27.61
77599;BMP280;66758;52.078;5.070;2023-09-07T08:49:27;101879.75;;;27.79
77599;BMP280;66758;52.078;5.070;2023-09-07T08:51:53;101907.19;;;28.22
77599;BMP280;66758;52.078;5.070;2023-09-07T08:54:20;101891.34;;;28.16
77599;BMP280;66758;52.078;5.070;2023-09-07T08:56:45;101941.03;;;28.22
77599;BMP280;66758;52.078;5.070;2023-09-07T08:59:12;101957.00;;;28.60
77599;BMP280;66758;52.078;5.070;2023-09-07T09:01:37;101945.66;;;28.51
77599;BMP280;66758;52.078;5.070;2023-09-07T09:04:03;101990.50;;;29.41
77599;BMP280;66758;52.078;5.070;2023-09-07T09:06:28;102001.75;;;29.90
77599;BMP280;66758;52.078;5.070;2023-09-07T09:08:57;102005.69;;;29.04
77599;BMP280;66758;52.078;5.070;2023-09-07T09:11:24;102028.81;;;30.27
77599;BMP280;66758;52.078;5.070;2023-09-07T09:13:52;102024.41;;;30.35
77599;BMP280;66758;52.078;5.070;2023-09-07T09:16:18;102063.56;;;29.30
77599;BMP280;66758;52.078;5.070;2023-09-07T09:18:51;102053.28;;;29.94
77599;BMP280;66758;52.078;5.070;2023-09-07T09:21:21;102043.28;;;30.29
77599;BMP280;66758;52.078;5.070;2023-09-07T09:23:49;102071.25;;;30.73
77599;BMP280;66758;52.078;5.070;2023-09-07T09:26:15;102077.44;;;31.13
77599;BMP280;66758;52.078;5.070;2023-09-07T09:28:42;102070.34;;;29.72
77599;BMP280;66758;52.078;5.070;2023-09-07T09:31:09;102095.31;;;30.59
77599;BMP280;66758;52.078;5.070;2023-09-07T09:33:39;102066.78;;;29.50
77599;BMP280;66758;52.078;5.070;2023-09-07T09:36:07;102087.88;;;30.16
77599;BMP280;66758;52.078;5.070;2023-09-07T09:38:33;102092.94;;;30.39
77599;BMP280;66758;52.078;5.070;2023-09-07T09:40:59;102093.53;;;30.98
77599;BMP280;66758;52.078;5.070;2023-09-07T09:43:26;102110.19;;;31.47
77599;BMP280;66758;52.078;5.070;2023-09-07T09:45:54;102124.97;;;31.00
77599;BMP280;66758;52.078;5.070;2023-09-07T09:48:20;102107.72;;;31.31
77599;BMP280;66758;52.078;5.070;2023-09-07T09:50:50;102114.34;;;31.37
77599;BMP280;66758;52.078;5.070;2023-09-07T09:53:16;102111.44;;;31.78
77599;BMP280;66758;52.078;5.070;2023-09-07T09:55:45;102114.59;;;31.48
77599;BMP280;66758;52.078;5.070;2023-09-07T09:58:15;102101.78;;;31.61
77599;BMP280;66758;52.078;5.070;2023-09-07T10:00:46;102115.59;;;31.68
77599;BMP280;66758;52.078;5.070;2023-09-07T10:03:21;102102.19;;;32.02
77599;BMP280;66758;52.078;5.070;2023-09-07T10:05:49;102110.88;;;33.19
77599;BMP280;66758;52.078;5.070;2023-09-07T10:08:17;102093.22;;;32.56
77599;BMP280;66758;52.078;5.070;2023-09-07T10:10:45;102113.00;;;32.51
77599;BMP280;66758;52.078;5.070;2023-09-07T10:13:29;102118.25;;;32.05
77599;BMP280;66758;52.078;5.070;2023-09-07T10:16:06;102109.69;;;32.52
77599;BMP280;66758;52.078;5.070;2023-09-07T10:18:38;102119.78;;;33.12
77599;BMP280;66758;52.078;5.070;2023-09-07T10:21:05;102100.47;;;31.71
77599;BMP280;66758;52.078;5.070;2023-09-07T10:23:51;102105.03;;;33.08
77599;BMP280;66758;52.078;5.070;2023-09-07T10:26:19;102117.66;;;32.92
77599;BMP280;66758;52.078;5.070;2023-09-07T10:28:58;102114.72;;;33.85
77599;BMP280;66758;52.078;5.070;2023-09-07T10:31:25;102107.94;;;33.62
77599;BMP280;66758;52.078;5.070;2023-09-07T10:33:51;102114.88;;;33.27
77599;BMP280;66758;52.078;5.070;2023-09-07T10:36:24;102117.28;;;34.23
77599;BMP280;66758;52.078;5.070;2023-09-07T10:38:50;102108.56;;;33.72
77599;BMP280;66758;52.078;5.070;2023-09-07T10:41:19;102122.41;;;33.99
77599;BMP280;66758;52.078;5.070;2023-09-07T10:43:53;102114.69;;;34.25
77599;BMP280;66758;52.078;5.070;2023-09-07T10:46:23;102118.56;;;33.47
77599;BMP280;66758;52.078;5.070;2023-09-07T10:48:50;102115.16;;;34.70
77599;BMP280;66758;52.078;5.070;2023-09-07T10:51:17;102119.22;;;36.16
77599;BMP280;66758;52.078;5.070;2023-09-07T10:53:42;102104.56;;;35.86
77599;BMP280;66758;52.078;5.070;2023-09-07T10:56:08;102107.53;;;36.47
77599;BMP280;66758;52.078;5.070;2023-09-07T10:58:38;102103.63;;;36.17
77599;BMP280;66758;52.078;5.070;2023-09-07T11:01:08;102107.81;;;36.71
77599;BMP280;66758;52.078;5.070;2023-09-07T11:03:36;102112.75;;;36.93
77599;BMP280;66758;52.078;5.070;2023-09-07T11:06:10;102102.06;;;36.27
77599;BMP280;66758;52.078;5.070;2023-09-07T11:08:37;102090.16;;;36.67
77599;BMP280;66758;52.078;5.070;2023-09-07T11:11:03;102096.91;;;36.20
77599;BMP280;66758;52.078;5.070;2023-09-07T11:13:29;102089.91;;;36.60
77599;BMP280;66758;52.078;5.070;2023-09-07T11:15:57;102092.59;;;35.71
77599;BMP280;66758;52.078;5.070;2023-09-07T11:18:23;102091.75;;;35.17
77599;BMP280;66758;52.078;5.070;2023-09-07T11:20:49;102086.50;;;35.10
77599;BMP280;66758;52.078;5.070;2023-09-07T11:23:21;102090.06;;;34.68
77599;BMP280;66758;52.078;5.070;2023-09-07T11:25:50;102088.69;;;35.26
77599;BMP280;66758;52.078;5.070;2023-09-07T11:28:17;102083.63;;;36.06
77599;BMP280;66758;52.078;5.070;2023-09-07T11:30:54;102079.97;;;36.00
77599;BMP280;66758;52.078;5.070;2023-09-07T11:33:20;102076.84;;;35.92
77599;BMP280;66758;52.078;5.070;2023-09-07T11:35:46;102082.06;;;35.04
77599;BMP280;66758;52.078;5.070;2023-09-07T11:38:14;102082.06;;;35.04
77599;BMP280;66758;52.078;5.070;2023-09-07T11:40:41;102078.19;;;36.19
77599;BMP280;66758;52.078;5.070;2023-09-07T11:43:13;102090.06;;;35.90
77599;BMP280;66758;52.078;5.070;2023-09-07T11:45:40;102083.13;;;35.48
77599;BMP280;66758;52.078;5.070;2023-09-07T11:48:05;102079.69;;;35.39
77599;BMP280;66758;52.078;5.070;2023-09-07T11:50:31;102076.28;;;35.83
77599;BMP280;66758;52.078;5.070;2023-09-07T11:52:57;102080.97;;;35.32
77599;BMP280;66758;52.078;5.070;2023-09-07T11:55:22;102072.94;;;35.90
77599;BMP280;66758;52.078;5.070;2023-09-07T11:57:48;102081.28;;;35.99
77599;BMP280;66758;52.078;5.070;2023-09-07T12:00:13;102076.91;;;35.44
77599;BMP280;66758;52.078;5.070;2023-09-07T12:02:40;102075.59;;;36.98
77599;BMP280;66758;52.078;5.070;2023-09-07T12:05:06;102077.44;;;36.79
77599;BMP280;66758;52.078;5.070;2023-09-07T12:07:36;102073.56;;;36.60
77599;BMP280;66758;52.078;5.070;2023-09-07T12:10:02;102078.66;;;35.95
77599;BMP280;66758;52.078;5.070;2023-09-07T12:12:28;102076.00;;;37.36
77599;BMP280;66758;52.078;5.070;2023-09-07T12:14:57;102063.94;;;36.69
77599;BMP280;66758;52.078;5.070;2023-09-07T12:17:23;102057.69;;;36.09
77599;BMP280;66758;52.078;5.070;2023-09-07T12:19:50;102056.91;;;36.36
77599;BMP280;66758;52.078;5.070;2023-09-07T12:22:15;102068.16;;;37.53
77599;BMP280;66758;52.078;5.070;2023-09-07T12:24:41;102072.66;;;37.37
77599;BMP280;66758;52.078;5.070;2023-09-07T12:27:06;102060.38;;;37.94
77599;BMP280;66758;52.078;5.070;2023-09-07T12:29:32;102058.44;;;38.73
77599;BMP280;66758;52.078;5.070;2023-09-07T12:31:57;102059.88;;;39.09
77599;BMP280;66758;52.078;5.070;2023-09-07T12:34:23;102062.75;;;39.27
77599;BMP280;66758;52.078;5.070;2023-09-07T12:36:49;102061.91;;;40.20
77599;BMP280;66758;52.078;5.070;2023-09-07T12:39:14;102057.66;;;38.13
77599;BMP280;66758;52.078;5.070;2023-09-07T12:41:40;102061.53;;;37.74
77599;BMP280;66758;52.078;5.070;2023-09-07T12:44:05;102058.22;;;36.41
77599;BMP280;66758;52.078;5.070;2023-09-07T12:46:31;102051.94;;;35.98
77599;BMP280;66758;52.078;5.070;2023-09-07T12:48:57;102056.13;;;34.39
77599;BMP280;66758;52.078;5.070;2023-09-07T12:51:22;102055.72;;;34.52
77599;BMP280;66758;52.078;5.070;2023-09-07T12:53:48;102038.81;;;33.01
77599;BMP280;66758;52.078;5.070;2023-09-07T12:56:13;102038.63;;;33.60
77599;BMP280;66758;52.078;5.070;2023-09-07T12:58:41;102032.59;;;33.52
77599;BMP280;66758;52.078;5.070;2023-09-07T13:01:06;102026.31;;;33.14
77599;BMP280;66758;52.078;5.070;2023-09-07T13:03:35;102029.25;;;32.02
77599;BMP280;66758;52.078;5.070;2023-09-07T13:06:00;102028.34;;;32.49
77599;BMP280;66758;52.078;5.070;2023-09-07T13:08:26;102024.66;;;34.02
77599;BMP280;66758;52.078;5.070;2023-09-07T13:10:51;102031.19;;;35.33
77599;BMP280;66758;52.078;5.070;2023-09-07T13:13:16;102026.06;;;37.42
77599;BMP280;66758;52.078;5.070;2023-09-07T13:15:42;102024.81;;;37.84
77599;BMP280;66758;52.078;5.070;2023-09-07T13:18:07;102027.28;;;37.58
77599;BMP280;66758;52.078;5.070;2023-09-07T13:20:33;102019.84;;;37.33
77599;BMP280;66758;52.078;5.070;2023-09-07T13:22:58;102009.81;;;37.67
77599;BMP280;66758;52.078;5.070;2023-09-07T13:25:25;102014.16;;;39.35
77599;BMP280;66758;52.078;5.070;2023-09-07T13:27:51;102002.88;;;39.00
77599;BMP280;66758;52.078;5.070;2023-09-07T13:30:16;102005.91;;;38.65
77599;BMP280;66758;52.078;5.070;2023-09-07T13:32:42;102002.16;;;39.37
77599;BMP280;66758;52.078;5.070;2023-09-07T13:35:07;101996.22;;;39.66
77599;BMP280;66758;52.078;5.070;2023-09-07T13:37:33;101987.53;;;39.72
77599;BMP280;66758;52.078;5.070;2023-09-07T13:40:00;101978.81;;;39.46
77599;BMP280;66758;52.078;5.070;2023-09-07T13:42:26;101980.19;;;39.20
77599;BMP280;66758;52.078;5.070;2023-09-07T13:44:52;101981.41;;;40.65
77599;BMP280;66758;52.078;5.070;2023-09-07T13:47:17;101973.72;;;39.70
77599;BMP280;66758;52.078;5.070;2023-09-07T13:49:43;101981.94;;;38.86
77599;BMP280;66758;52.078;5.070;2023-09-07T13:52:08;101962.22;;;39.70
77599;BMP280;66758;52.078;5.070;2023-09-07T13:54:34;101959.34;;;39.39
77599;BMP280;66758;52.078;5.070;2023-09-07T13:56:59;101965.75;;;39.95